Time;durP1;ratioP1;P1;durP2;ratioP2;P2;SDS_P1;SDS_P2;PMS_P1;PMS_P2;Temp;Humidity;BMP_temperature;BMP_pressure;BME280_temperature;BME280_humidity;BME280_pressure;Samples;Min_cycle;Max_cycle;Signal;HPM_P1;HPM_P2
2023/06/18 03:02:26;;;;;;;37.10;34.77;;;12.80;99.90;;;;;;4957727;23;20716;-67
2023/06/18 03:04:52;;;;;;;89.33;84.37;;;12.90;99.90;;;;;;4860664;29;20193;-67
2023/06/18 03:07:17;;;;;;;89.27;84.27;;;12.80;99.90;;;;;;4877589;29;20204;-67
2023/06/18 03:09:43;;;;;;;81.40;76.83;;;12.80;99.90;;;;;;4860969;29;20802;-67
2023/06/18 03:12:11;;;;;;;65.67;61.93;;;12.80;99.90;;;;;;4865144;29;20563;-67
2023/06/18 03:14:37;;;;;;;74.73;70.60;;;12.70;99.90;;;;;;4845617;29;20616;-66
2023/06/18 03:17:03;;;;;;;55.13;51.87;;;12.70;99.90;;;;;;4901995;24;20244;-72
2023/06/18 03:19:29;;;;;;;47.53;44.73;;;12.70;99.90;;;;;;4895402;29;20192;-72
2023/06/18 03:21:55;;;;;;;64.07;60.33;;;12.70;99.90;;;;;;4895876;29;20197;-72
2023/06/18 03:24:22;;;;;;;93.57;88.53;;;12.70;99.90;;;;;;4906613;29;20195;-72
2023/06/18 03:26:48;;;;;;;63.67;60.07;;;12.70;99.90;;;;;;4897032;29;20212;-72
2023/06/18 03:29:14;;;;;;;42.37;39.77;;;12.60;99.90;;;;;;4889895;29;20206;-72
2023/06/18 03:31:40;;;;;;;42.03;39.43;;;12.60;99.90;;;;;;4882861;29;20568;-72
2023/06/18 03:34:07;;;;;;;41.73;39.13;;;12.70;99.90;;;;;;4881021;29;20755;-72
2023/06/18 03:36:43;;;;;;;41.73;38.50;;;12.60;99.90;;;;;;4896067;29;20576;-72
2023/06/18 03:39:09;;;;;;;51.70;48.63;;;12.60;99.90;;;;;;4895346;29;20198;-72
2023/06/18 03:41:36;;;;;;;51.50;48.33;;;12.60;99.90;;;;;;4891280;29;20652;-71
2023/06/18 03:44:05;;;;;;;32.93;30.77;;;12.60;99.90;;;;;;4895204;29;20251;-72
2023/06/18 03:46:32;;;;;;;40.27;37.73;;;12.60;99.90;;;;;;4895487;29;20254;-71
2023/06/18 03:48:58;;;;;;;34.03;31.43;;;12.60;99.90;;;;;;4891216;29;20291;-70
2023/06/18 03:51:24;;;;;;;76.67;72.40;;;12.70;99.90;;;;;;4887454;29;20187;-71
2023/06/18 03:53:50;;;;;;;69.03;65.23;;;12.70;99.90;;;;;;4893655;29;20742;-71
2023/06/18 03:56:16;;;;;;;68.77;65.07;;;12.70;99.90;;;;;;4890714;29;20215;-72
2023/06/18 03:58:43;;;;;;;88.10;83.03;;;12.80;99.90;;;;;;4873645;29;20206;-72
2023/06/18 04:01:10;;;;;;;22.77;21.00;;;12.80;99.90;;;;;;4895734;29;20230;-72
2023/06/18 04:03:36;;;;;;;15.47;14.10;;;13.00;99.90;;;;;;4895211;29;20222;-71
2023/06/18 04:06:03;;;;;;;31.40;15.00;;;13.00;99.90;;;;;;4894932;29;20263;-72
2023/06/18 04:08:29;;;;;;;14.83;13.63;;;13.10;99.90;;;;;;4894824;29;20191;-72
2023/06/18 04:10:55;;;;;;;15.77;14.47;;;13.10;99.90;;;;;;4890811;29;20195;-72
2023/06/18 04:13:22;;;;;;;23.13;20.93;;;13.20;99.90;;;;;;4890026;29;20192;-70
2023/06/18 04:15:48;;;;;;;22.93;21.23;;;13.20;99.90;;;;;;4894744;29;20599;-71
2023/06/18 04:18:15;;;;;;;27.63;25.80;;;13.30;99.90;;;;;;4893181;29;20194;-68
2023/06/18 04:20:41;;;;;;;17.87;16.23;;;13.30;99.90;;;;;;4875827;29;20249;-69
2023/06/18 04:23:08;;;;;;;14.43;13.20;;;13.40;99.90;;;;;;4893954;29;20200;-69
2023/06/18 04:25:34;;;;;;;17.50;16.20;;;13.50;99.90;;;;;;4880609;29;20216;-69
2023/06/18 04:28:00;;;;;;;18.33;16.83;;;13.50;99.90;;;;;;4878796;29;20188;-69
2023/06/18 04:30:26;;;;;;;17.57;16.13;;;13.60;99.90;;;;;;4877802;29;20196;-69
2023/06/18 04:32:52;;;;;;;18.03;16.53;;;13.70;99.90;;;;;;4896657;29;20283;-68
2023/06/18 04:35:19;;;;;;;18.50;17.00;;;13.80;99.90;;;;;;4897865;29;20675;-69
2023/06/18 04:37:45;;;;;;;24.13;22.53;;;13.90;99.90;;;;;;4892038;29;20223;-69
2023/06/18 04:40:11;;;;;;;51.40;48.07;;;14.00;99.90;;;;;;4896205;29;20230;-69
2023/06/18 04:42:37;;;;;;;109.20;103.30;;;14.10;99.90;;;;;;4894538;29;20237;-69
2023/06/18 04:45:04;;;;;;;109.60;103.70;;;14.20;99.90;;;;;;4897344;29;20215;-69
2023/06/18 04:47:30;;;;;;;32.50;30.27;;;14.30;99.90;;;;;;4897357;29;20223;-68
2023/06/18 04:49:56;;;;;;;17.10;15.53;;;14.50;99.90;;;;;;4897811;29;20199;-69
2023/06/18 04:52:22;;;;;;;20.40;18.97;;;14.60;99.90;;;;;;4892345;29;20192;-69
2023/06/18 04:54:48;;;;;;;39.57;36.97;;;14.80;99.90;;;;;;4897883;29;20192;-68
2023/06/18 04:57:14;;;;;;;30.20;28.30;;;15.00;99.90;;;;;;4897681;29;20227;-69
2023/06/18 04:59:40;;;;;;;15.40;14.07;;;15.30;99.90;;;;;;4897095;29;20199;-68
2023/06/18 05:02:07;;;;;;;33.30;30.70;;;15.60;99.90;;;;;;4896981;29;20287;-67
2023/06/18 05:04:33;;;;;;;28.63;26.70;;;15.80;99.90;;;;;;4897931;29;20216;-68
2023/06/18 05:06:58;;;;;;;14.55;13.25;;;16.10;99.90;;;;;;4891207;29;20211;-67
2023/06/18 05:09:27;;;;;;;13.35;12.02;;;16.60;99.90;;;;;;4898046;29;20271;-68
2023/06/18 05:11:53;;;;;;;12.40;11.30;;;16.90;99.90;;;;;;4897806;29;20202;-68
2023/06/18 05:14:19;;;;;;;14.70;12.98;;;17.20;99.90;;;;;;4897601;29;20200;-69
2023/06/18 05:16:45;;;;;;;16.70;15.30;;;17.60;99.90;;;;;;4897565;29;20704;-69
2023/06/18 05:19:11;;;;;;;15.85;14.38;;;18.00;99.90;;;;;;4895159;29;20224;-68
2023/06/18 05:21:37;;;;;;;11.23;10.32;;;18.30;99.90;;;;;;4898039;29;20290;-69
2023/06/18 05:24:03;;;;;;;19.23;17.75;;;18.60;99.90;;;;;;4906910;29;20238;-69
2023/06/18 05:26:31;;;;;;;48.97;46.22;;;19.10;99.90;;;;;;4913013;29;20203;-68
2023/06/18 05:28:57;;;;;;;60.15;56.70;;;19.40;99.90;;;;;;4912441;29;20183;-69
2023/06/18 05:31:22;;;;;;;35.25;33.08;;;19.50;99.90;;;;;;4905327;29;20199;-69
2023/06/18 05:33:48;;;;;;;21.85;20.25;;;19.50;99.90;;;;;;4890935;29;20259;-69
2023/06/18 05:36:15;;;;;;;27.30;25.00;;;19.60;99.90;;;;;;4891410;29;20223;-69
2023/06/18 05:38:40;;;;;;;26.15;24.25;;;19.60;99.90;;;;;;4895527;29;20690;-69
2023/06/18 05:41:06;;;;;;;28.85;27.08;;;19.60;99.90;;;;;;4880579;29;20572;-69
2023/06/18 05:43:32;;;;;;;26.90;25.00;;;19.50;99.90;;;;;;4896173;29;20222;-69
2023/06/18 05:45:58;;;;;;;24.48;22.88;;;19.50;99.90;;;;;;4896773;29;20215;-69
2023/06/18 05:48:24;;;;;;;22.40;20.90;;;19.50;99.90;;;;;;4889746;29;20184;-68
2023/06/18 05:50:50;;;;;;;21.38;19.88;;;19.60;99.90;;;;;;4896756;29;20246;-69
2023/06/18 05:53:16;;;;;;;18.70;17.40;;;19.70;99.90;;;;;;4889881;29;20188;-70
2023/06/18 05:55:42;;;;;;;15.63;14.43;;;19.80;99.90;;;;;;4896515;29;20231;-68
2023/06/18 05:58:07;;;;;;;14.00;12.90;;;20.00;99.90;;;;;;4896501;29;20770;-68
2023/06/18 06:00:33;;;;;;;11.95;10.90;;;20.10;99.90;;;;;;4896881;29;20192;-68
2023/06/18 06:02:59;;;;;;;13.60;11.13;;;20.40;99.90;;;;;;4889467;29;20199;-68
2023/06/18 06:05:25;;;;;;;12.75;11.65;;;20.60;99.90;;;;;;4896650;29;20856;-69
2023/06/18 06:07:50;;;;;;;11.40;10.25;;;21.00;99.90;;;;;;4896266;29;20214;-69
2023/06/18 06:10:18;;;;;;;10.20;9.15;;;21.20;99.90;;;;;;4896500;29;20215;-68
2023/06/18 06:12:44;;;;;;;10.75;9.75;;;21.30;99.90;;;;;;4896474;29;20188;-68
2023/06/18 06:15:10;;;;;;;20.98;19.17;;;21.50;99.90;;;;;;4892668;29;20196;-68
2023/06/18 06:17:37;;;;;;;18.10;16.80;;;21.80;99.50;;;;;;4891895;29;20259;-69
2023/06/18 06:20:03;;;;;;;14.65;13.32;;;22.10;98.60;;;;;;4896473;29;20586;-69
2023/06/18 06:22:29;;;;;;;13.27;12.27;;;22.30;98.10;;;;;;4896313;29;20191;-68
2023/06/18 06:24:55;;;;;;;11.15;10.15;;;22.60;97.80;;;;;;4895886;29;20211;-68
2023/06/18 06:27:21;;;;;;;9.48;8.68;;;23.00;96.80;;;;;;4896037;29;20215;-69
2023/06/18 06:29:47;;;;;;;9.63;8.82;;;23.30;96.20;;;;;;4888381;29;20247;-69
2023/06/18 06:32:13;;;;;;;9.40;8.68;;;23.70;95.50;;;;;;4895201;29;20188;-70
2023/06/18 06:34:38;;;;;;;10.45;9.13;;;24.10;94.10;;;;;;4902979;29;20611;-70
2023/06/18 06:37:05;;;;;;;9.55;8.75;;;24.40;93.30;;;;;;4895323;29;20206;-70
2023/06/18 06:39:30;;;;;;;11.57;10.60;;;24.70;92.10;;;;;;4895218;29;20227;-70
2023/06/18 06:41:56;;;;;;;17.92;16.73;;;24.90;91.30;;;;;;4896249;29;20298;-70
2023/06/18 06:44:22;;;;;;;24.67;23.17;;;25.10;90.90;;;;;;4888157;29;20306;-69
2023/06/18 06:46:48;;;;;;;38.95;36.63;;;25.40;90.80;;;;;;4880617;29;20208;-69
2023/06/18 06:49:13;;;;;;;34.03;31.65;;;25.60;90.30;;;;;;4869677;29;20571;-69
2023/06/18 06:51:39;;;;;;;30.13;28.30;;;25.90;90.00;;;;;;4896064;29;20551;-69
2023/06/18 06:54:05;;;;;;;26.25;24.58;;;26.00;88.60;;;;;;4895220;29;20198;-69
2023/06/18 06:56:32;;;;;;;21.33;19.90;;;25.90;87.50;;;;;;4894994;29;20215;-70
2023/06/18 06:58:58;;;;;;;14.77;13.77;;;26.00;85.20;;;;;;4878428;29;20289;-70
2023/06/18 07:01:24;;;;;;;12.68;11.68;;;26.20;83.70;;;;;;4889946;29;20254;-70
2023/06/18 07:03:50;;;;;;;10.85;9.80;;;26.30;82.70;;;;;;4895740;29;20219;-70
2023/06/18 07:06:16;;;;;;;12.18;11.23;;;26.50;80.90;;;;;;4895229;29;20298;-70
2023/06/18 07:08:42;;;;;;;10.57;9.77;;;26.70;79.80;;;;;;4893686;29;20188;-69
2023/06/18 07:11:08;;;;;;;10.80;9.75;;;26.80;78.00;;;;;;4891595;29;20222;-71
2023/06/18 07:13:34;;;;;;;10.52;9.63;;;26.60;77.80;;;;;;4892060;29;20187;-70
2023/06/18 07:16:00;;;;;;;11.85;10.40;;;26.40;79.20;;;;;;4894890;29;20234;-67
2023/06/18 07:18:26;;;;;;;10.57;9.75;;;26.80;78.40;;;;;;4895280;29;20196;-67
2023/06/18 07:20:52;;;;;;;11.27;10.55;;;27.20;77.50;;;;;;4896797;29;20255;-67
2023/06/18 07:23:18;;;;;;;10.95;9.98;;;27.20;74.90;;;;;;4909471;29;20260;-67
2023/06/18 07:25:43;;;;;;;11.35;10.55;;;27.10;75.20;;;;;;4905476;29;20204;-67
2023/06/18 07:28:09;;;;;;;11.70;10.70;;;27.50;75.50;;;;;;4895798;29;20227;-68
2023/06/18 07:30:35;;;;;;;21.25;19.77;;;28.10;75.80;;;;;;4894926;29;20556;-68
2023/06/18 07:33:01;;;;;;;34.08;32.15;;;28.50;74.90;;;;;;4895544;29;20192;-68
2023/06/18 07:35:26;;;;;;;31.88;30.05;;;28.80;74.10;;;;;;4895507;29;20255;-67
2023/06/18 07:37:52;;;;;;;34.13;32.22;;;28.90;73.20;;;;;;4894553;29;20205;-68
2023/06/18 07:40:18;;;;;;;26.13;24.52;;;28.90;72.10;;;;;;4894339;29;20703;-68
2023/06/18 07:42:44;;;;;;;22.15;20.38;;;28.80;71.00;;;;;;4895203;29;20192;-70
2023/06/18 07:45:10;;;;;;;19.17;17.98;;;29.00;70.70;;;;;;4890249;29;20264;-69
2023/06/18 07:47:35;;;;;;;12.30;11.50;;;29.40;69.40;;;;;;4891461;29;20687;-70
2023/06/18 07:50:01;;;;;;;10.55;9.65;;;29.70;66.00;;;;;;4895515;29;20220;-70
2023/06/18 07:52:27;;;;;;;10.50;9.60;;;29.70;65.60;;;;;;4895396;29;20202;-69
2023/06/18 07:54:53;;;;;;;9.93;9.07;;;29.90;63.60;;;;;;4892094;29;20596;-69
2023/06/18 07:57:19;;;;;;;8.88;7.97;;;29.60;63.80;;;;;;4894835;29;20259;-69
2023/06/18 07:59:45;;;;;;;8.55;7.93;;;29.80;63.70;;;;;;4894925;29;20195;-70
2023/06/18 08:02:11;;;;;;;8.98;8.27;;;30.00;63.60;;;;;;4895333;29;20200;-69
2023/06/18 08:04:37;;;;;;;8.77;7.97;;;29.90;64.10;;;;;;4888273;29;20215;-68
2023/06/18 08:07:03;;;;;;;8.45;7.63;;;30.00;63.10;;;;;;4895493;29;20275;-69
2023/06/18 08:09:29;;;;;;;14.93;7.88;;;30.10;63.30;;;;;;4898557;29;20757;-70
2023/06/18 08:11:55;;;;;;;9.73;8.38;;;30.50;63.20;;;;;;4898590;29;20198;-69
2023/06/18 08:14:21;;;;;;;12.57;9.02;;;30.90;62.30;;;;;;4898690;29;20227;-69
2023/06/18 08:16:48;;;;;;;16.65;9.30;;;31.20;60.10;;;;;;4897840;29;20231;-68
2023/06/18 08:19:13;;;;;;;18.30;16.83;;;31.20;59.90;;;;;;4887388;29;20196;-68
2023/06/18 08:21:39;;;;;;;49.83;25.48;;;31.10;58.70;;;;;;4893693;29;20195;-67
2023/06/18 08:24:05;;;;;;;26.85;24.80;;;31.30;59.40;;;;;;4897989;29;20592;-69
2023/06/18 08:26:31;;;;;;;34.45;32.45;;;31.50;59.00;;;;;;4897615;29;20295;-68
2023/06/18 08:28:58;;;;;;;41.08;38.50;;;31.80;56.60;;;;;;4896893;29;20188;-68
2023/06/18 08:31:24;;;;;;;40.67;38.25;;;32.00;57.80;;;;;;4885287;29;20240;-68
2023/06/18 08:33:50;;;;;;;45.25;42.55;;;32.10;57.50;;;;;;4882446;29;20196;-69
2023/06/18 08:36:19;;;;;;;42.00;39.30;;;32.30;56.50;;;;;;4892823;29;20212;-67
2023/06/18 08:38:45;;;;;;;49.00;45.63;;;32.00;55.90;;;;;;4895644;29;20254;-68
2023/06/18 08:41:11;;;;;;;54.08;50.75;;;31.70;57.40;;;;;;4897381;29;20742;-69
2023/06/18 08:43:38;;;;;;;59.53;56.50;;;31.90;57.60;;;;;;4885848;29;20202;-68
2023/06/18 08:46:10;;;;;;;35.40;33.38;;;31.90;56.40;;;;;;4889136;29;20344;-68
2023/06/18 08:48:58;;;;;;;17.90;16.80;;;32.00;55.20;;;;;;4887315;29;20192;-68
2023/06/18 08:51:25;;;;;;;11.75;10.85;;;32.50;53.50;;;;;;4898101;29;20191;-69
2023/06/18 08:53:58;;;;;;;9.60;8.30;;;32.80;52.20;;;;;;4897372;29;20717;-69
2023/06/18 08:56:25;;;;;;;8.95;8.25;;;33.10;52.20;;;;;;4895640;29;20630;-69
2023/06/18 08:58:55;;;;;;;9.35;8.52;;;32.90;48.70;;;;;;4894564;29;20260;-68
2023/06/18 09:01:22;;;;;;;8.95;8.25;;;32.80;50.50;;;;;;4891945;29;20198;-69
2023/06/18 09:03:48;;;;;;;8.27;7.68;;;32.60;46.60;;;;;;4897678;29;20622;-69
2023/06/18 09:06:14;;;;;;;7.82;7.13;;;32.60;46.90;;;;;;4889760;29;20677;-69
2023/06/18 09:08:40;;;;;;;8.77;8.07;;;32.70;48.10;;;;;;4897583;29;20183;-69
2023/06/18 09:11:06;;;;;;;10.18;9.50;;;32.90;46.80;;;;;;4898089;29;20223;-68
2023/06/18 09:13:33;;;;;;;8.50;7.90;;;33.20;45.20;;;;;;4890801;29;20181;-69
2023/06/18 09:18:27;;;;;;;7.78;7.25;;;33.40;45.90;;;;;;4847903;23;20250;-66
2023/06/18 09:20:53;;;;;;;7.60;6.90;;;33.30;47.20;;;;;;4843692;29;20257;-67
2023/06/18 09:23:19;;;;;;;8.50;7.78;;;33.50;46.10;;;;;;4859809;29;20181;-65
2023/06/18 09:25:52;;;;;;;8.63;7.93;;;33.70;45.60;;;;;;4859912;29;20229;-67
2023/06/18 09:28:23;;;;;;;10.30;7.93;;;33.60;46.20;;;;;;4846882;29;20209;-67
2023/06/18 09:30:56;;;;;;;11.55;10.75;;;33.60;46.50;;;;;;4858055;29;20193;-67
2023/06/18 09:33:30;;;;;;;25.05;23.48;;;34.10;45.50;;;;;;4859989;29;20245;-67
2023/06/18 09:36:07;;;;;;;28.30;26.42;;;34.00;42.50;;;;;;4859588;29;20296;-65
2023/06/18 09:38:37;;;;;;;25.73;24.33;;;34.10;43.40;;;;;;4858594;29;20227;-65
2023/06/18 09:41:12;;;;;;;51.28;47.92;;;34.40;44.60;;;;;;4859934;29;20189;-67
2023/06/18 09:43:40;;;;;;;45.97;43.33;;;34.40;42.40;;;;;;4858120;29;20199;-67
2023/06/18 09:46:07;;;;;;;25.80;24.30;;;33.70;42.60;;;;;;4857922;29;20670;-66
2023/06/18 09:48:35;;;;;;;34.90;33.03;;;33.30;44.70;;;;;;4842907;29;20196;-70
2023/06/18 09:51:01;;;;;;;53.63;50.67;;;33.60;41.60;;;;;;4859983;29;20193;-67
2023/06/18 09:53:27;;;;;;;48.67;46.03;;;34.00;41.80;;;;;;4860018;29;20662;-67
2023/06/18 09:55:55;;;;;;;55.90;53.13;;;34.30;42.50;;;;;;4859631;29;20192;-67
2023/06/18 09:58:46;;;;;;;62.38;59.10;;;34.70;43.00;;;;;;4858937;29;20217;-67
2023/06/18 10:01:13;;;;;;;61.45;58.30;;;34.70;41.30;;;;;;4868454;29;20200;-67
2023/06/18 10:03:39;;;;;;;49.38;46.75;;;34.70;41.10;;;;;;4863511;29;20284;-67
2023/06/18 10:06:22;;;;;;;35.13;32.58;;;34.80;40.00;;;;;;4859899;29;20199;-67
2023/06/18 10:08:50;;;;;;;24.65;23.25;;;34.50;39.40;;;;;;4859699;29;20193;-67
2023/06/18 10:11:17;;;;;;;42.03;39.80;;;33.90;39.70;;;;;;4858923;29;20197;-68
2023/06/18 10:13:47;;;;;;;22.70;21.40;;;34.30;40.50;;;;;;4857817;29;20228;-67
2023/06/18 10:16:15;;;;;;;26.45;24.65;;;34.50;39.50;;;;;;4858762;29;20565;-67
2023/06/18 10:19:11;;;;;;;36.90;34.85;;;34.10;39.50;;;;;;4858753;29;20333;-71
2023/06/18 10:21:49;;;;;;;30.58;28.25;;;33.60;40.60;;;;;;4856488;29;20209;-66
2023/06/18 10:24:21;;;;;;;26.23;24.50;;;33.90;39.70;;;;;;4854608;29;20192;-69
2023/06/18 10:26:47;;;;;;;30.08;28.23;;;34.30;38.80;;;;;;4859085;29;20224;-71
2023/06/18 10:29:13;;;;;;;18.60;17.42;;;34.60;39.90;;;;;;4841643;29;20193;-66
2023/06/18 10:31:39;;;;;;;14.48;13.25;;;34.80;38.70;;;;;;4858988;29;20212;-66
2023/06/18 10:34:05;;;;;;;19.77;17.85;;;34.70;38.00;;;;;;4858884;29;20228;-67
2023/06/18 10:36:32;;;;;;;80.05;73.60;;;34.70;39.10;;;;;;4858950;29;20208;-66
2023/06/18 10:38:59;;;;;;;94.50;86.57;;;35.10;40.60;;;;;;4853410;29;20185;-73
2023/06/18 10:41:27;;;;;;;22.15;15.43;;;35.30;42.60;;;;;;4841415;29;20192;-70
2023/06/18 10:43:54;;;;;;;7.50;6.78;;;36.20;39.00;;;;;;4857662;29;20204;-70
2023/06/18 10:46:21;;;;;;;20.10;12.02;;;36.20;36.10;;;;;;4859150;29;20228;-73
2023/06/18 10:49:20;;;;;;;10.30;9.18;;;35.90;39.90;;;;;;4857375;29;20208;-71
2023/06/18 10:51:58;;;;;;;12.07;11.00;;;36.60;36.70;;;;;;4858499;29;20197;-67
2023/06/18 10:54:29;;;;;;;14.00;12.98;;;37.10;36.60;;;;;;4850744;29;20220;-69
2023/06/18 10:56:57;;;;;;;15.90;14.90;;;37.50;35.00;;;;;;4850639;29;20296;-69
2023/06/18 10:59:58;;;;;;;9.38;8.77;;;37.60;34.40;;;;;;4849053;29;20184;-70
2023/06/18 11:02:32;;;;;;;15.60;14.32;;;37.60;35.70;;;;;;4847481;29;20196;-70
2023/06/18 11:04:59;;;;;;;12.82;11.75;;;36.80;34.00;;;;;;4855703;29;20288;-69
2023/06/18 11:07:26;;;;;;;16.98;15.80;;;36.50;35.00;;;;;;4848137;29;20687;-64
2023/06/18 11:10:01;;;;;;;14.48;13.57;;;36.20;35.40;;;;;;4855538;29;20563;-66
2023/06/18 11:12:38;;;;;;;16.58;15.23;;;36.20;34.60;;;;;;4841807;29;20207;-66
2023/06/18 11:15:15;;;;;;;18.05;16.85;;;36.30;35.80;;;;;;4858310;29;20316;-67
2023/06/18 11:17:49;;;;;;;15.55;14.52;;;36.50;36.10;;;;;;4853752;29;20233;-67
2023/06/18 11:20:17;;;;;;;14.32;13.52;;;36.60;37.50;;;;;;4838971;29;20690;-68
2023/06/18 11:22:44;;;;;;;16.25;15.25;;;37.00;37.70;;;;;;4834284;29;20198;-68
2023/06/18 11:25:12;;;;;;;9.77;9.07;;;37.80;35.00;;;;;;4840172;29;20658;-67
2023/06/18 11:27:46;;;;;;;10.73;10.10;;;38.00;33.50;;;;;;4823060;29;20221;-66
2023/06/18 11:30:13;;;;;;;8.48;7.47;;;38.50;33.30;;;;;;4828130;29;20193;-64
2023/06/18 11:32:40;;;;;;;7.78;7.07;;;38.60;34.60;;;;;;4839689;29;20224;-63
2023/06/18 11:35:11;;;;;;;10.50;9.55;;;38.80;33.20;;;;;;4839748;29;20281;-66
2023/06/18 11:37:42;;;;;;;16.05;14.60;;;39.10;31.90;;;;;;4833385;29;20309;-67
2023/06/18 11:40:09;;;;;;;16.38;15.10;;;38.70;32.10;;;;;;4831616;29;20192;-67
2023/06/18 11:42:37;;;;;;;13.13;12.32;;;38.60;32.00;;;;;;4845311;29;20938;-81
2023/06/18 11:45:08;;;;;;;9.63;8.93;;;38.20;32.40;;;;;;4859561;29;20232;-80
2023/06/18 11:47:36;;;;;;;11.45;10.75;;;38.10;32.50;;;;;;4856331;29;20221;-81
2023/06/18 11:50:02;;;;;;;17.58;9.52;;;37.80;33.20;;;;;;4838263;29;20814;-81
2023/06/18 11:52:29;;;;;;;11.77;10.98;;;37.50;34.10;;;;;;4839020;29;20301;-81
2023/06/18 11:55:02;;;;;;;9.65;8.95;;;37.80;34.70;;;;;;4845307;29;20225;-83
2023/06/18 11:57:28;;;;;;;9.77;9.18;;;38.70;33.50;;;;;;4844800;29;20216;-83
2023/06/18 11:59:54;;;;;;;28.42;26.80;;;39.20;33.10;;;;;;4848123;29;20197;-83
2023/06/18 12:02:23;;;;;;;19.55;18.50;;;39.60;31.20;;;;;;4835113;29;20191;-79
2023/06/18 12:04:52;;;;;;;18.95;17.88;;;39.30;30.90;;;;;;4840570;29;20285;-82
2023/06/18 12:07:22;;;;;;;19.23;17.95;;;38.80;32.70;;;;;;4844328;29;20300;-82
2023/06/18 12:09:51;;;;;;;19.63;18.52;;;39.30;31.30;;;;;;4845209;29;20251;-81
2023/06/18 12:12:28;;;;;;;16.20;15.20;;;38.30;32.70;;;;;;4847115;29;20654;-82
2023/06/18 12:15:07;;;;;;;15.30;14.38;;;38.00;32.50;;;;;;4862846;29;20257;-81
2023/06/18 12:17:58;;;;;;;17.77;16.50;;;38.20;32.20;;;;;;4865494;29;20293;-83
2023/06/18 12:20:27;;;;;;;17.77;16.65;;;38.80;31.90;;;;;;4854751;29;20281;-81
2023/06/18 12:22:54;;;;;;;20.77;19.67;;;38.90;32.00;;;;;;4855283;29;20194;-82
2023/06/18 12:25:22;;;;;;;28.83;27.20;;;39.40;32.00;;;;;;4853745;29;20189;-82
2023/06/18 12:27:50;;;;;;;23.67;22.30;;;40.10;31.00;;;;;;4853899;29;20221;-81
2023/06/18 12:30:16;;;;;;;23.13;21.70;;;40.40;30.30;;;;;;4852324;29;20208;-82
2023/06/18 12:32:59;;;;;;;24.02;22.70;;;39.90;30.50;;;;;;4851194;29;20221;-81
2023/06/18 12:35:24;;;;;;;27.05;25.48;;;39.60;31.30;;;;;;4852145;29;20219;-81
2023/06/18 12:37:50;;;;;;;24.90;23.55;;;38.20;31.60;;;;;;4847828;29;20218;-82
2023/06/18 12:40:22;;;;;;;23.90;21.83;;;38.30;32.40;;;;;;4852563;29;20296;-82
2023/06/18 12:42:49;;;;;;;19.95;18.88;;;38.50;32.70;;;;;;4855243;29;20566;-80
2023/06/18 12:45:21;;;;;;;21.90;20.42;;;37.70;32.80;;;;;;4848657;29;20318;-71
2023/06/18 12:47:47;;;;;;;31.60;29.95;;;38.50;33.00;;;;;;4847192;29;20229;-84
2023/06/18 12:50:39;;;;;;;21.25;20.05;;;39.50;31.70;;;;;;4837515;29;20222;-85
2023/06/18 12:53:27;;;;;;;15.00;14.10;;;40.10;30.80;;;;;;4842493;29;20616;-86
2023/06/18 12:55:57;;;;;;;10.90;10.30;;;40.30;30.40;;;;;;4841722;29;20202;-87
2023/06/18 12:58:25;;;;;;;10.13;9.43;;;40.60;30.10;;;;;;4842786;29;20218;-87
2023/06/18 13:00:54;;;;;;;10.15;9.55;;;40.40;30.90;;;;;;4841294;29;20572;-86
2023/06/18 13:03:22;;;;;;;6.38;5.88;;;40.70;30.40;;;;;;4842110;29;20288;-86
2023/06/18 13:05:48;;;;;;;7.18;5.78;;;41.10;29.70;;;;;;4838901;29;20277;-86
2023/06/18 13:08:17;;;;;;;5.75;5.35;;;41.30;29.90;;;;;;4841864;29;20593;-86
2023/06/18 13:10:47;;;;;;;6.63;6.13;;;41.60;29.50;;;;;;4842942;29;20201;-86
2023/06/18 13:13:16;;;;;;;6.70;6.03;;;42.30;28.90;;;;;;4843703;29;20206;-86
2023/06/18 13:15:42;;;;;;;8.38;7.88;;;42.20;28.80;;;;;;4836108;29;20186;-85
2023/06/18 13:18:08;;;;;;;10.95;9.88;;;41.80;30.10;;;;;;4842027;29;20225;-84
2023/06/18 13:20:35;;;;;;;11.68;10.68;;;41.60;28.90;;;;;;4842104;29;20723;-83
2023/06/18 13:23:01;;;;;;;8.05;7.55;;;40.80;29.20;;;;;;4837667;29;20694;-84
2023/06/18 13:25:27;;;;;;;8.13;7.63;;;40.80;29.70;;;;;;4841778;29;20225;-85
2023/06/18 13:27:54;;;;;;;8.43;6.65;;;41.20;29.80;;;;;;4858257;29;20229;-85
2023/06/18 13:30:20;;;;;;;9.27;8.68;;;42.00;29.00;;;;;;4861339;29;20190;-85
2023/06/18 13:32:46;;;;;;;12.60;11.82;;;42.40;28.60;;;;;;4848212;29;20259;-85
2023/06/18 13:35:12;;;;;;;7.72;7.22;;;42.50;28.60;;;;;;4842704;29;20197;-83
2023/06/18 13:37:39;;;;;;;10.57;9.57;;;42.00;29.20;;;;;;4841403;29;20217;-84
2023/06/18 13:40:05;;;;;;;13.18;12.27;;;41.10;28.90;;;;;;4842423;29;20198;-85
2023/06/18 13:42:31;;;;;;;10.82;10.02;;;41.40;28.80;;;;;;4844906;29;20200;-84
2023/06/18 13:44:59;;;;;;;13.05;12.15;;;41.60;29.40;;;;;;4843118;29;20222;-85
2023/06/18 13:47:25;;;;;;;8.75;8.05;;;41.40;28.50;;;;;;4839147;29;20301;-83
2023/06/18 13:49:53;;;;;;;9.38;8.77;;;42.40;28.20;;;;;;4844141;29;20194;-84
2023/06/18 13:52:19;;;;;;;14.80;13.80;;;42.60;28.20;;;;;;4843936;29;20217;-84
2023/06/18 13:54:46;;;;;;;9.82;9.23;;;42.70;29.00;;;;;;4842383;29;20254;-86
2023/06/18 13:57:12;;;;;;;9.93;9.02;;;42.90;29.00;;;;;;4842303;29;20659;-84
2023/06/18 13:59:38;;;;;;;10.40;9.70;;;41.80;28.50;;;;;;4841981;29;20217;-85
2023/06/18 14:02:04;;;;;;;11.70;10.80;;;40.50;29.30;;;;;;4837743;29;20362;-86
2023/06/18 14:04:35;;;;;;;8.20;7.45;;;40.30;29.40;;;;;;4837724;29;20724;-86
2023/06/18 14:07:02;;;;;;;7.13;6.53;;;40.00;29.80;;;;;;4841760;29;20214;-85
2023/06/18 14:09:28;;;;;;;6.25;5.85;;;39.90;29.90;;;;;;4841432;29;20254;-85
2023/06/18 14:11:54;;;;;;;6.55;6.10;;;39.30;30.50;;;;;;4843781;29;20197;-86
2023/06/18 14:14:19;;;;;;;5.93;5.53;;;38.50;30.70;;;;;;4843322;29;20251;-85
2023/06/18 14:16:46;;;;;;;6.07;5.65;;;38.30;31.10;;;;;;4826866;29;20230;-85
2023/06/18 14:19:14;;;;;;;5.90;5.60;;;38.60;31.10;;;;;;4838400;29;20196;-85
2023/06/18 14:21:40;;;;;;;6.82;6.30;;;38.50;31.60;;;;;;4849361;29;20231;-84
2023/06/18 14:24:06;;;;;;;10.95;10.05;;;38.30;31.50;;;;;;4842478;29;20225;-84
2023/06/18 14:26:33;;;;;;;19.30;18.10;;;37.60;31.60;;;;;;4841859;29;20304;-84
2023/06/18 14:28:59;;;;;;;32.35;30.60;;;37.10;32.30;;;;;;4836067;29;20187;-84
2023/06/18 14:31:26;;;;;;;22.70;21.38;;;36.90;32.20;;;;;;4844420;29;20679;-85
2023/06/18 14:33:51;;;;;;;28.02;26.40;;;35.90;33.00;;;;;;4843197;29;20213;-84
2023/06/18 14:36:17;;;;;;;41.65;39.38;;;35.50;34.10;;;;;;4842391;29;20197;-84
2023/06/18 14:38:43;;;;;;;43.03;40.80;;;35.20;34.70;;;;;;4843568;29;20748;-84
2023/06/18 14:41:09;;;;;;;28.75;27.10;;;36.10;34.00;;;;;;4845723;29;20194;-83
2023/06/18 14:43:34;;;;;;;31.88;30.13;;;37.10;32.30;;;;;;4839211;29;20559;-84
2023/06/18 14:46:00;;;;;;;38.83;36.65;;;38.40;31.60;;;;;;4842413;29;20197;-83
2023/06/18 14:48:26;;;;;;;31.50;29.63;;;38.90;31.30;;;;;;4841234;29;20596;-83
2023/06/18 14:50:52;;;;;;;24.25;22.95;;;38.30;30.90;;;;;;4842571;29;20197;-84
2023/06/18 14:53:17;;;;;;;32.03;30.23;;;37.40;31.50;;;;;;4841952;29;20947;-84
2023/06/18 14:55:45;;;;;;;19.85;18.75;;;36.80;32.30;;;;;;4845449;29;20580;-84
2023/06/18 14:58:11;;;;;;;21.60;20.00;;;36.20;32.90;;;;;;4840288;29;20210;-84
2023/06/18 15:00:37;;;;;;;28.60;27.10;;;35.70;34.20;;;;;;4840276;29;20289;-84
2023/06/18 15:03:04;;;;;;;32.25;30.38;;;35.80;34.00;;;;;;4842675;29;20194;-84
2023/06/18 15:05:29;;;;;;;36.42;34.38;;;35.60;33.40;;;;;;4845073;29;20229;-84
2023/06/18 15:07:55;;;;;;;41.25;38.28;;;35.50;33.70;;;;;;4842149;29;20445;-84
2023/06/18 15:10:21;;;;;;;62.00;58.53;;;35.40;33.90;;;;;;4841758;29;20186;-85
2023/06/18 15:12:47;;;;;;;67.05;63.72;;;34.80;34.60;;;;;;4838083;29;20753;-84
2023/06/18 15:15:14;;;;;;;64.00;60.75;;;34.40;35.10;;;;;;4846732;29;20193;-83
2023/06/18 15:17:39;;;;;;;59.45;56.35;;;34.30;35.00;;;;;;4898747;24;20234;-78
2023/06/18 15:20:06;;;;;;;61.10;57.65;;;34.10;35.50;;;;;;4916689;29;20278;-78
2023/06/18 15:22:32;;;;;;;63.10;59.75;;;34.30;36.20;;;;;;4917090;29;20191;-78
2023/06/18 15:25:02;;;;;;;68.15;64.72;;;34.50;36.20;;;;;;4909811;29;20222;-79
2023/06/18 15:27:29;;;;;;;70.70;66.95;;;34.70;36.60;;;;;;4898452;29;20436;-80
2023/06/18 15:29:56;;;;;;;63.95;60.63;;;34.90;35.90;;;;;;4901286;29;20191;-78
2023/06/18 15:32:22;;;;;;;61.97;58.75;;;35.50;35.60;;;;;;4899712;29;20195;-79
2023/06/18 15:34:48;;;;;;;37.85;35.85;;;36.30;34.30;;;;;;4881353;29;20278;-78
2023/06/18 15:37:18;;;;;;;29.95;28.13;;;36.70;33.10;;;;;;4897219;29;20580;-79